Time;durP1;ratioP1;P1;durP2;ratioP2;P2;SDS_P1;SDS_P2;PMS_P1;PMS_P2;Temp;Humidity;BMP_temperature;BMP_pressure;BME280_temperature;BME280_humidity;BME280_pressure;Samples;Min_cycle;Max_cycle;Signal;HPM_P1;HPM_P2
2023/05/21 00:00:50;;;;;;;10.50;8.03;;;13.10;99.90;;;;;;5102614;28;20182;-77
2023/05/21 00:03:16;;;;;;;8.87;6.80;;;13.10;99.90;;;;;;5106327;28;20642;-78
2023/05/21 00:05:43;;;;;;;13.17;9.60;;;13.00;99.90;;;;;;5105230;28;20194;-78
2023/05/21 00:08:09;;;;;;;14.80;8.40;;;13.10;99.90;;;;;;5096574;28;20178;-78
2023/05/21 00:10:35;;;;;;;10.50;8.80;;;13.10;99.90;;;;;;5108045;28;20557;-78
2023/05/21 00:13:00;;;;;;;12.70;8.07;;;13.10;99.90;;;;;;5109357;28;20178;-78
2023/05/21 00:15:26;;;;;;;11.30;8.17;;;13.10;99.90;;;;;;5109364;28;20197;-78
2023/05/21 00:17:52;;;;;;;12.40;8.50;;;13.10;99.90;;;;;;5114491;28;20209;-77
2023/05/21 00:20:17;;;;;;;14.43;8.47;;;13.10;99.90;;;;;;5109773;28;20647;-77
2023/05/21 00:22:42;;;;;;;13.57;7.67;;;13.00;99.90;;;;;;5103660;28;20201;-78
2023/05/21 00:25:10;;;;;;;9.83;7.90;;;13.00;99.90;;;;;;5108518;28;20213;-77
2023/05/21 00:27:35;;;;;;;10.67;7.83;;;13.00;99.90;;;;;;5113892;28;20554;-78
2023/05/21 00:30:02;;;;;;;9.83;7.97;;;13.00;99.90;;;;;;5113815;28;20185;-77
2023/05/21 00:32:27;;;;;;;11.13;7.90;;;13.00;99.90;;;;;;5105517;28;20181;-76
2023/05/21 00:34:53;;;;;;;11.93;9.80;;;13.00;99.90;;;;;;5112002;28;20212;-78
2023/05/21 00:37:19;;;;;;;11.23;7.57;;;13.00;99.90;;;;;;5108065;28;20590;-77
2023/05/21 00:39:45;;;;;;;11.33;7.73;;;13.00;99.90;;;;;;5109087;28;20550;-77
2023/05/21 00:42:11;;;;;;;12.40;8.57;;;13.00;99.90;;;;;;5112685;28;20257;-78
2023/05/21 00:44:37;;;;;;;9.77;7.93;;;13.00;99.90;;;;;;5112478;28;20197;-77
2023/05/21 00:47:03;;;;;;;13.73;7.43;;;13.00;99.90;;;;;;5114080;28;20524;-77
2023/05/21 00:49:30;;;;;;;11.73;8.30;;;13.00;99.90;;;;;;5114904;28;20658;-77
2023/05/21 00:51:55;;;;;;;11.93;7.23;;;13.00;99.90;;;;;;5112940;28;20184;-77
2023/05/21 00:54:22;;;;;;;10.03;7.87;;;13.00;99.90;;;;;;5115534;28;20182;-77
2023/05/21 00:56:49;;;;;;;9.83;7.40;;;13.00;99.90;;;;;;5107471;28;20284;-77
2023/05/21 00:59:15;;;;;;;10.13;6.93;;;13.00;99.90;;;;;;5094873;28;20190;-76
2023/05/21 01:01:44;;;;;;;8.60;6.33;;;13.00;99.90;;;;;;5096142;28;20170;-78
2023/05/21 01:04:10;;;;;;;12.07;7.27;;;13.00;99.90;;;;;;5093821;28;20173;-77
2023/05/21 01:06:36;;;;;;;9.57;6.43;;;13.00;99.90;;;;;;5093613;28;20178;-77
2023/05/21 01:09:03;;;;;;;10.73;6.27;;;12.90;99.90;;;;;;5106399;28;20227;-77
2023/05/21 01:11:45;;;;;;;7.70;6.27;;;12.90;99.90;;;;;;5111552;28;20238;-77
2023/05/21 01:14:12;;;;;;;14.87;6.57;;;12.90;99.90;;;;;;5093698;28;20659;-78
2023/05/21 01:16:39;;;;;;;11.53;6.80;;;12.90;99.90;;;;;;5105017;28;20754;-77
2023/05/21 01:19:08;;;;;;;8.07;6.17;;;12.90;99.90;;;;;;5113368;28;20170;-77
2023/05/21 01:21:36;;;;;;;7.50;6.10;;;12.90;99.90;;;;;;5112545;28;20196;-77
2023/05/21 01:24:04;;;;;;;9.43;6.50;;;12.90;99.90;;;;;;5092116;28;20186;-78
2023/05/21 01:26:32;;;;;;;10.77;6.77;;;12.90;99.90;;;;;;5092155;28;20248;-77
2023/05/21 01:28:57;;;;;;;10.60;6.47;;;13.00;99.90;;;;;;5106125;28;20242;-77
2023/05/21 01:31:28;;;;;;;7.93;5.90;;;12.90;99.90;;;;;;5111392;28;20181;-78
2023/05/21 01:33:59;;;;;;;11.00;5.63;;;13.00;99.90;;;;;;5110998;28;20185;-77
2023/05/21 01:36:31;;;;;;;15.13;6.43;;;13.00;99.90;;;;;;5113962;28;20627;-77
2023/05/21 01:39:02;;;;;;;7.53;6.23;;;13.00;99.90;;;;;;5110483;28;20737;-78
2023/05/21 01:41:33;;;;;;;6.73;5.40;;;13.00;99.90;;;;;;5106606;28;20177;-79
2023/05/21 01:44:00;;;;;;;5.90;5.10;;;13.00;99.90;;;;;;5097682;28;20177;-78
2023/05/21 01:46:29;;;;;;;8.77;5.60;;;13.00;99.90;;;;;;5112029;28;20300;-77
2023/05/21 01:48:56;;;;;;;6.33;5.53;;;13.00;99.90;;;;;;5111896;28;20231;-77
2023/05/21 01:51:22;;;;;;;7.90;5.60;;;13.00;99.90;;;;;;5112088;28;20185;-77
2023/05/21 01:53:48;;;;;;;7.50;6.03;;;13.00;99.90;;;;;;5093767;28;20670;-77
2023/05/21 01:56:14;;;;;;;8.13;5.57;;;12.90;99.90;;;;;;5092108;28;20198;-77
2023/05/21 01:58:40;;;;;;;9.57;5.70;;;13.00;99.90;;;;;;5103937;28;20222;-78
2023/05/21 02:01:06;;;;;;;6.40;4.83;;;12.90;99.90;;;;;;5114471;28;20174;-77
2023/05/21 02:03:31;;;;;;;10.70;5.13;;;12.90;99.90;;;;;;5102688;28;20202;-77
2023/05/21 02:05:57;;;;;;;6.97;5.23;;;12.90;99.90;;;;;;5091421;28;20205;-77
2023/05/21 02:08:24;;;;;;;7.00;5.17;;;12.90;99.90;;;;;;5105318;28;20671;-77
2023/05/21 02:10:50;;;;;;;7.97;5.40;;;12.90;99.90;;;;;;5101632;28;20651;-77
2023/05/21 02:13:19;;;;;;;9.07;5.17;;;13.00;99.90;;;;;;5105264;28;20177;-77
2023/05/21 02:15:44;;;;;;;7.30;5.17;;;12.90;99.90;;;;;;5116445;28;20181;-77
2023/05/21 02:18:10;;;;;;;7.83;5.20;;;12.90;99.90;;;;;;5116127;28;20203;-78
2023/05/21 02:20:35;;;;;;;6.43;4.33;;;12.90;99.90;;;;;;5114755;28;20178;-77
2023/05/21 02:23:01;;;;;;;6.30;4.67;;;12.90;99.90;;;;;;5115159;28;20198;-77
2023/05/21 02:25:26;;;;;;;7.80;5.00;;;12.90;99.90;;;;;;5117944;28;20191;-77
2023/05/21 02:27:52;;;;;;;7.57;5.07;;;12.90;99.90;;;;;;5106093;28;20667;-77
2023/05/21 02:30:18;;;;;;;9.23;5.40;;;12.90;99.90;;;;;;5109442;28;20226;-77
2023/05/21 02:32:44;;;;;;;10.03;4.87;;;12.90;99.90;;;;;;5099287;28;20170;-78
2023/05/21 02:35:11;;;;;;;6.43;5.17;;;12.90;99.90;;;;;;5099973;28;20709;-77
2023/05/21 02:37:39;;;;;;;7.43;5.50;;;12.90;99.90;;;;;;5117483;28;20216;-78
2023/05/21 02:40:06;;;;;;;6.07;5.00;;;12.80;99.90;;;;;;5116068;28;20170;-77
2023/05/21 02:42:32;;;;;;;6.10;5.20;;;12.80;99.90;;;;;;5114895;28;20184;-77
2023/05/21 02:44:57;;;;;;;7.63;4.87;;;12.80;99.90;;;;;;5117198;28;20535;-77
2023/05/21 02:47:24;;;;;;;5.63;4.97;;;12.90;99.90;;;;;;5111839;28;20185;-77
2023/05/21 02:49:50;;;;;;;7.77;4.97;;;12.90;99.90;;;;;;5095476;28;20318;-78
2023/05/21 02:52:17;;;;;;;7.13;5.10;;;12.90;99.90;;;;;;5096659;28;20174;-78
2023/05/21 02:54:43;;;;;;;7.87;4.67;;;12.90;99.90;;;;;;5096284;28;20248;-77
2023/05/21 02:57:09;;;;;;;7.33;4.87;;;12.80;99.90;;;;;;5096185;28;20547;-78
2023/05/21 02:59:35;;;;;;;6.07;4.77;;;12.80;99.90;;;;;;5115796;28;20233;-77
2023/05/21 03:02:00;;;;;;;7.17;4.70;;;12.80;99.90;;;;;;5116741;28;20642;-77
2023/05/21 03:04:27;;;;;;;5.20;4.63;;;12.80;99.90;;;;;;5114869;28;20201;-77
2023/05/21 03:06:53;;;;;;;7.03;4.97;;;12.90;99.90;;;;;;5117033;28;20162;-77
2023/05/21 03:09:20;;;;;;;6.40;4.97;;;12.80;99.90;;;;;;5117635;28;20180;-78
2023/05/21 03:11:46;;;;;;;6.53;5.00;;;12.80;99.90;;;;;;5121839;28;20169;-77
2023/05/21 03:14:12;;;;;;;5.57;5.00;;;12.80;99.90;;;;;;5116627;28;20290;-78
2023/05/21 03:16:40;;;;;;;6.27;5.10;;;12.80;99.90;;;;;;5096492;28;20606;-77
2023/05/21 03:19:06;;;;;;;7.70;4.93;;;12.80;99.90;;;;;;5111840;28;20173;-78
2023/05/21 03:21:32;;;;;;;6.90;5.37;;;12.80;99.90;;;;;;5114242;28;20177;-77
2023/05/21 03:23:59;;;;;;;6.47;4.63;;;12.80;99.90;;;;;;5095043;28;20683;-77
2023/05/21 03:26:28;;;;;;;7.00;4.90;;;12.80;99.90;;;;;;5092731;28;20194;-77
2023/05/21 03:28:57;;;;;;;6.43;4.80;;;12.80;99.90;;;;;;5098088;28;20178;-77
2023/05/21 03:31:23;;;;;;;7.10;4.93;;;12.80;99.90;;;;;;5113627;28;20230;-77
2023/05/21 03:33:50;;;;;;;4.23;3.83;;;12.80;99.90;;;;;;5109744;28;20278;-78
2023/05/21 03:36:15;;;;;;;6.57;4.70;;;12.80;99.90;;;;;;5113493;28;20197;-77
2023/05/21 03:38:41;;;;;;;6.53;4.70;;;12.80;99.90;;;;;;5114727;28;20192;-77
2023/05/21 03:41:07;;;;;;;6.57;4.43;;;12.80;99.90;;;;;;5114241;28;20557;-77
2023/05/21 03:43:33;;;;;;;5.93;5.33;;;12.80;99.90;;;;;;5096379;28;20178;-77
2023/05/21 03:45:58;;;;;;;6.40;4.50;;;12.70;99.90;;;;;;5114142;28;20582;-77
2023/05/21 03:48:24;;;;;;;6.30;4.77;;;12.70;99.90;;;;;;5113308;28;20559;-77
2023/05/21 03:50:50;;;;;;;8.03;5.37;;;12.70;99.90;;;;;;5114521;28;20562;-77
2023/05/21 03:53:15;;;;;;;8.03;5.30;;;12.80;99.90;;;;;;5113859;28;20209;-77
2023/05/21 03:55:41;;;;;;;6.13;5.53;;;12.80;99.90;;;;;;5109381;28;20285;-77
2023/05/21 03:58:09;;;;;;;5.50;5.00;;;12.70;99.90;;;;;;5112403;28;20642;-78
2023/05/21 04:00:36;;;;;;;6.60;5.10;;;12.70;99.90;;;;;;5113683;28;20239;-77
2023/05/21 04:03:02;;;;;;;6.80;5.57;;;12.70;99.90;;;;;;5105185;28;20170;-77
2023/05/21 04:05:28;;;;;;;6.40;5.27;;;12.70;99.90;;;;;;5093125;28;20193;-77
2023/05/21 04:07:53;;;;;;;6.87;5.83;;;12.70;99.90;;;;;;5094588;28;20186;-77
2023/05/21 04:10:19;;;;;;;6.27;5.23;;;12.70;99.90;;;;;;5100753;28;20193;-77
2023/05/21 04:12:47;;;;;;;7.13;5.50;;;12.80;99.90;;;;;;5103340;28;20200;-77
2023/05/21 04:15:17;;;;;;;10.30;5.43;;;12.80;99.90;;;;;;5109867;28;20274;-77
2023/05/21 04:17:44;;;;;;;9.07;4.80;;;12.80;99.90;;;;;;5108919;28;20287;-77
2023/05/21 04:20:10;;;;;;;7.47;4.93;;;12.80;99.90;;;;;;5100886;28;20217;-77
2023/05/21 04:22:36;;;;;;;7.50;5.80;;;12.80;99.90;;;;;;5101736;28;20246;-78
2023/05/21 04:25:02;;;;;;;7.33;5.43;;;12.80;99.90;;;;;;5110907;28;20638;-77
2023/05/21 04:27:27;;;;;;;9.77;5.50;;;12.80;99.90;;;;;;5093963;28;20257;-77
2023/05/21 04:29:53;;;;;;;5.83;4.70;;;12.80;99.90;;;;;;5100280;28;20169;-77
2023/05/21 04:32:20;;;;;;;6.70;5.77;;;12.80;99.90;;;;;;5113259;28;20185;-77
2023/05/21 04:34:45;;;;;;;6.37;5.33;;;12.80;99.90;;;;;;5113056;28;20262;-77
2023/05/21 04:37:11;;;;;;;7.20;5.73;;;12.90;99.90;;;;;;5112621;28;20622;-76
2023/05/21 04:39:37;;;;;;;6.60;5.40;;;12.90;99.90;;;;;;5100711;28;20177;-77
2023/05/21 04:42:03;;;;;;;5.77;5.00;;;12.90;99.90;;;;;;5111161;28;20185;-77
2023/05/21 04:44:28;;;;;;;9.27;6.07;;;12.90;99.90;;;;;;5110245;28;20210;-77
2023/05/21 04:46:56;;;;;;;7.37;5.70;;;12.90;99.90;;;;;;5112910;28;20178;-77
2023/05/21 04:49:21;;;;;;;7.63;5.73;;;12.90;99.90;;;;;;5112369;28;20189;-77
2023/05/21 04:51:48;;;;;;;5.97;5.10;;;13.00;99.90;;;;;;5098905;28;20186;-77
2023/05/21 04:54:13;;;;;;;7.40;5.07;;;13.00;99.90;;;;;;5093842;28;20190;-77
2023/05/21 04:56:39;;;;;;;6.53;5.40;;;13.00;99.90;;;;;;5099460;28;20262;-77
2023/05/21 04:59:05;;;;;;;7.13;6.17;;;13.00;99.90;;;;;;5103259;28;20257;-77
2023/05/21 05:01:33;;;;;;;7.67;6.10;;;13.00;99.90;;;;;;5111940;28;20181;-77
2023/05/21 05:03:59;;;;;;;7.07;5.67;;;13.00;99.90;;;;;;5109820;28;20753;-77
2023/05/21 05:06:25;;;;;;;7.83;5.80;;;13.10;99.90;;;;;;5108514;28;20197;-77
2023/05/21 05:08:51;;;;;;;7.10;5.83;;;13.10;99.90;;;;;;5096296;28;20226;-77
2023/05/21 05:11:16;;;;;;;7.77;6.40;;;13.20;99.90;;;;;;5113989;28;20177;-77
2023/05/21 05:13:42;;;;;;;7.70;5.47;;;13.20;99.90;;;;;;5114493;28;20218;-77
2023/05/21 05:16:07;;;;;;;8.90;5.80;;;13.20;99.90;;;;;;5114159;28;20185;-77
2023/05/21 05:18:33;;;;;;;6.83;5.73;;;13.20;99.90;;;;;;5114108;28;20211;-77
2023/05/21 05:21:00;;;;;;;7.37;5.93;;;13.20;99.90;;;;;;5114390;28;20241;-77
2023/05/21 05:23:25;;;;;;;8.17;6.53;;;13.30;99.90;;;;;;5113509;28;20250;-77
2023/05/21 05:25:51;;;;;;;7.43;5.80;;;13.30;99.90;;;;;;5113809;28;20189;-77
2023/05/21 05:28:16;;;;;;;7.83;5.90;;;13.30;99.90;;;;;;5113214;28;20184;-77
2023/05/21 05:30:42;;;;;;;7.40;6.23;;;13.40;99.90;;;;;;5113428;28;20223;-77
2023/05/21 05:33:08;;;;;;;8.23;5.73;;;13.40;99.90;;;;;;5113834;28;20177;-77
2023/05/21 05:35:33;;;;;;;7.27;5.37;;;13.40;99.90;;;;;;5113352;28;20678;-77
2023/05/21 05:37:59;;;;;;;8.07;5.67;;;13.50;99.90;;;;;;5094787;28;20217;-77
2023/05/21 05:40:24;;;;;;;7.27;6.00;;;13.40;99.90;;;;;;5094825;28;20650;-77
2023/05/21 05:42:51;;;;;;;7.97;6.10;;;13.50;99.90;;;;;;5111767;28;20220;-76
2023/05/21 05:45:17;;;;;;;6.93;5.53;;;13.60;99.90;;;;;;5096679;28;20336;-77
2023/05/21 05:47:43;;;;;;;8.07;5.67;;;13.60;99.90;;;;;;5092472;28;20563;-77
2023/05/21 05:50:09;;;;;;;9.87;5.87;;;13.70;99.90;;;;;;5093470;28;20314;-77
2023/05/21 05:52:34;;;;;;;8.53;5.87;;;13.70;99.90;;;;;;5095297;28;20273;-77
2023/05/21 05:55:00;;;;;;;5.33;4.83;;;13.70;99.90;;;;;;5106899;28;20204;-76
2023/05/21 05:57:25;;;;;;;7.03;6.13;;;13.80;99.90;;;;;;5117695;28;20193;-77
2023/05/21 05:59:51;;;;;;;8.93;5.97;;;13.80;99.90;;;;;;5101171;28;20554;-78
2023/05/21 06:02:16;;;;;;;7.73;5.63;;;13.80;99.90;;;;;;5099962;28;20193;-76
2023/05/21 06:04:42;;;;;;;8.77;5.93;;;13.90;99.90;;;;;;5104357;28;20210;-77
2023/05/21 06:07:08;;;;;;;7.97;6.30;;;13.90;99.90;;;;;;5106536;28;20203;-77
2023/05/21 06:09:33;;;;;;;10.00;6.53;;;13.90;99.90;;;;;;5100261;28;20651;-77
2023/05/21 06:11:59;;;;;;;8.10;6.40;;;13.90;99.90;;;;;;5095965;28;20186;-77
2023/05/21 06:14:24;;;;;;;7.37;6.07;;;14.00;99.90;;;;;;5101505;28;20182;-77
2023/05/21 06:16:50;;;;;;;9.80;6.23;;;14.00;99.90;;;;;;5113026;28;20250;-77
2023/05/21 06:19:15;;;;;;;6.40;5.80;;;14.00;99.90;;;;;;5111042;28;20181;-77
2023/05/21 06:21:41;;;;;;;8.87;6.13;;;14.10;99.90;;;;;;5109725;28;20360;-77
2023/05/21 06:24:06;;;;;;;6.73;6.03;;;14.10;99.90;;;;;;5112594;28;20205;-77
2023/05/21 06:26:32;;;;;;;6.07;5.40;;;14.10;99.90;;;;;;5093376;28;20175;-78
2023/05/21 06:28:57;;;;;;;7.60;6.70;;;14.10;99.90;;;;;;5114886;28;20193;-77
2023/05/21 06:31:23;;;;;;;8.73;6.33;;;14.10;99.90;;;;;;5095604;28;20179;-77
2023/05/21 06:33:49;;;;;;;9.03;7.00;;;14.20;99.90;;;;;;5101815;28;20697;-77
2023/05/21 06:36:15;;;;;;;8.30;6.70;;;14.20;99.90;;;;;;5114331;28;20277;-77
2023/05/21 06:38:41;;;;;;;8.20;6.33;;;14.30;99.90;;;;;;5114973;28;20166;-76
2023/05/21 06:41:07;;;;;;;7.90;5.63;;;14.30;99.90;;;;;;5115376;28;20178;-77
2023/05/21 06:43:33;;;;;;;8.13;7.10;;;14.40;99.90;;;;;;5117217;28;20170;-77
2023/05/21 06:45:58;;;;;;;7.93;6.50;;;14.40;99.90;;;;;;5116706;28;20194;-76
2023/05/21 06:48:24;;;;;;;6.97;5.97;;;14.50;99.90;;;;;;5116891;28;20177;-77
2023/05/21 06:50:49;;;;;;;7.13;6.23;;;14.50;86.90;;;;;;5114960;28;20282;-77
2023/05/21 06:53:15;;;;;;;9.57;6.50;;;14.60;99.90;;;;;;5115115;28;20272;-77
2023/05/21 06:55:44;;;;;;;11.03;6.77;;;14.60;99.90;;;;;;5115073;28;20262;-76
2023/05/21 06:58:12;;;;;;;8.70;7.23;;;14.60;90.50;;;;;;5116067;28;20569;-77
2023/05/21 07:00:38;;;;;;;9.00;6.30;;;14.70;99.90;;;;;;5114558;28;20681;-77
2023/05/21 07:03:03;;;;;;;10.00;7.53;;;14.70;87.60;;;;;;5116173;28;20166;-76
2023/05/21 07:05:29;;;;;;;9.17;6.93;;;14.80;84.40;;;;;;5116462;28;20201;-77
2023/05/21 07:07:55;;;;;;;8.83;6.40;;;14.80;43.00;;;;;;5116714;28;20181;-76
2023/05/21 07:10:20;;;;;;;6.93;6.20;;;14.90;18.10;;;;;;5116457;28;20177;-77
2023/05/21 07:12:46;;;;;;;7.60;6.53;;;15.00;74.40;;;;;;5114345;28;20518;-77
2023/05/21 07:15:11;;;;;;;8.03;6.80;;;15.10;91.00;;;;;;5114033;28;20243;-77
2023/05/21 07:17:37;;;;;;;9.53;6.90;;;15.20;82.80;;;;;;5114024;28;20208;-77
2023/05/21 07:20:06;;;;;;;7.57;6.30;;;15.30;18.50;;;;;;5115401;28;20260;-77
2023/05/21 07:22:32;;;;;;;8.60;7.00;;;15.40;14.40;;;;;;5115665;28;20226;-77
2023/05/21 07:24:57;;;;;;;8.33;6.73;;;15.40;8.20;;;;;;5115273;28;20193;-77
2023/05/21 07:27:23;;;;;;;8.47;7.13;;;15.50;5.70;;;;;;5115922;28;20256;-77
2023/05/21 07:29:48;;;;;;;10.17;7.43;;;15.60;1.00;;;;;;5115340;28;20180;-76
2023/05/21 07:32:14;;;;;;;7.77;6.57;;;15.60;1.00;;;;;;5115069;28;20265;-77
2023/05/21 07:34:39;;;;;;;9.07;7.23;;;15.70;1.00;;;;;;5113622;28;20228;-77
2023/05/21 07:37:05;;;;;;;8.60;7.53;;;15.80;1.00;;;;;;5115131;28;20202;-76
2023/05/21 07:39:30;;;;;;;8.43;7.40;;;15.90;1.00;;;;;;5116098;28;20552;-77
2023/05/21 07:41:56;;;;;;;9.57;7.03;;;16.00;1.00;;;;;;5116653;28;20208;-77
2023/05/21 07:44:23;;;;;;;13.17;7.27;;;16.10;1.00;;;;;;5113667;28;20249;-76
2023/05/21 07:46:48;;;;;;;10.20;7.90;;;16.20;1.00;;;;;;5114756;27;20174;-77
2023/05/21 07:49:15;;;;;;;8.87;7.27;;;16.30;1.00;;;;;;5114486;28;20181;-77
2023/05/21 07:51:42;;;;;;;7.87;7.07;;;16.30;1.00;;;;;;5113116;28;20181;-77
2023/05/21 07:54:08;;;;;;;8.73;7.80;;;16.40;1.00;;;;;;5114339;28;20274;-77
2023/05/21 07:56:33;;;;;;;8.90;7.03;;;16.50;1.00;;;;;;5114638;28;20677;-77
2023/05/21 07:59:00;;;;;;;10.40;7.13;;;16.50;1.00;;;;;;5113188;28;20181;-77
2023/05/21 08:01:28;;;;;;;9.27;7.40;;;16.50;1.00;;;;;;5114646;28;20166;-77
2023/05/21 08:03:54;;;;;;;8.97;7.70;;;16.50;1.00;;;;;;5114060;28;20193;-77
2023/05/21 08:06:21;;;;;;;9.30;7.67;;;16.60;1.00;;;;;;5114135;28;20224;-77
2023/05/21 08:08:46;;;;;;;10.07;8.37;;;16.60;1.00;;;;;;5112910;28;20241;-77
2023/05/21 08:11:12;;;;;;;8.77;7.87;;;16.70;1.00;;;;;;5114055;28;20166;-77
2023/05/21 08:13:37;;;;;;;12.60;7.43;;;16.70;1.00;;;;;;5112252;28;20197;-77
2023/05/21 08:16:04;;;;;;;10.50;7.73;;;16.70;1.00;;;;;;5114308;28;20186;-77
2023/05/21 08:18:30;;;;;;;9.57;7.73;;;16.80;1.00;;;;;;5112737;28;20243;-76
2023/05/21 08:20:55;;;;;;;9.30;8.00;;;16.80;1.00;;;;;;5113048;28;20170;-77
2023/05/21 08:23:21;;;;;;;9.83;8.10;;;16.90;1.00;;;;;;5114047;28;20599;-77
2023/05/21 08:25:46;;;;;;;13.43;8.40;;;16.90;1.00;;;;;;5114091;28;20181;-77
2023/05/21 08:28:12;;;;;;;10.53;8.67;;;16.90;1.00;;;;;;5114452;28;20174;-77
2023/05/21 08:30:37;;;;;;;9.00;7.97;;;17.00;1.00;;;;;;5114153;28;20175;-77
2023/05/21 08:33:03;;;;;;;9.07;7.67;;;17.10;1.00;;;;;;5112739;28;20212;-77
2023/05/21 08:35:28;;;;;;;11.53;8.53;;;17.20;1.00;;;;;;5112641;28;20204;-77
2023/05/21 08:37:54;;;;;;;11.70;8.07;;;17.20;1.00;;;;;;5113722;28;20204;-77
2023/05/21 08:40:19;;;;;;;11.50;9.10;;;17.30;1.00;;;;;;5114061;28;20241;-77
2023/05/21 08:42:47;;;;;;;12.30;8.80;;;17.50;1.00;;;;;;5112112;28;20174;-77
2023/05/21 08:45:15;;;;;;;11.87;8.73;;;17.50;1.00;;;;;;5113492;27;20186;-77
2023/05/21 08:47:45;;;;;;;11.07;8.40;;;17.60;1.00;;;;;;5114273;28;20301;-77
2023/05/21 08:50:15;;;;;;;11.20;8.23;;;17.70;1.00;;;;;;5113966;28;20200;-77
2023/05/21 08:52:41;;;;;;;12.57;8.13;;;17.70;1.00;;;;;;5112470;28;20204;-76
2023/05/21 08:55:08;;;;;;;8.93;7.37;;;17.80;1.00;;;;;;5114124;28;20256;-77
2023/05/21 08:57:35;;;;;;;9.77;8.40;;;17.90;1.00;;;;;;5112379;28;20666;-77
2023/05/21 09:00:00;;;;;;;11.73;9.07;;;18.00;1.00;;;;;;5112837;28;20176;-77
2023/05/21 09:02:29;;;;;;;11.00;9.27;;;18.10;1.00;;;;;;5113921;28;20170;-77
2023/05/21 09:04:56;;;;;;;11.13;7.97;;;18.20;1.00;;;;;;5113384;28;20749;-77
2023/05/21 09:07:28;;;;;;;10.93;8.23;;;18.30;1.00;;;;;;5114416;28;20166;-77
2023/05/21 09:10:09;;;;;;;10.70;7.97;;;18.40;1.00;;;;;;5113897;28;20158;-77
2023/05/21 09:12:35;;;;;;;9.23;8.27;;;18.60;1.00;;;;;;5112249;28;20195;-77
2023/05/21 09:15:01;;;;;;;11.70;9.07;;;18.60;1.00;;;;;;5114537;28;20189;-77
2023/05/21 09:17:26;;;;;;;9.83;8.37;;;18.60;1.00;;;;;;5113908;28;20221;-77
2023/05/21 09:20:14;;;;;;;12.17;9.40;;;18.70;1.00;;;;;;5114507;28;20247;-77
2023/05/21 09:22:41;;;;;;;12.83;8.63;;;18.70;1.00;;;;;;5112683;28;20200;-77
2023/05/21 09:25:08;;;;;;;12.20;8.87;;;18.80;1.00;;;;;;5116661;28;20182;-77
2023/05/21 09:27:34;;;;;;;10.73;9.07;;;18.90;1.00;;;;;;5118966;28;20508;-77
2023/05/21 09:30:04;;;;;;;13.20;9.67;;;18.90;1.00;;;;;;5118513;28;20177;-77
2023/05/21 09:32:29;;;;;;;12.03;9.47;;;18.90;99.90;;;;;;5117159;28;20205;-77
2023/05/21 09:34:55;;;;;;;11.30;9.90;;;18.80;99.90;;;;;;5116801;28;20242;-77
2023/05/21 09:37:21;;;;;;;11.27;9.40;;;18.80;1.00;;;;;;5116971;28;20213;-77
2023/05/21 09:39:47;;;;;;;10.07;8.87;;;18.90;99.90;;;;;;5117085;28;20721;-77
2023/05/21 09:42:13;;;;;;;10.80;9.33;;;18.90;1.00;;;;;;5117500;28;20193;-77
2023/05/21 09:44:41;;;;;;;10.63;9.00;;;18.90;1.00;;;;;;5119146;28;20193;-77
2023/05/21 09:47:08;;;;;;;13.60;9.90;;;18.90;1.00;;;;;;5117366;28;20184;-77
2023/05/21 09:49:36;;;;;;;9.60;8.47;;;19.00;1.00;;;;;;5118447;28;20178;-77
2023/05/21 09:52:02;;;;;;;11.83;10.33;;;19.10;1.00;;;;;;5119103;28;20522;-77
2023/05/21 09:54:32;;;;;;;11.37;10.07;;;19.20;99.90;;;;;;5119073;28;20250;-77
2023/05/21 09:57:00;;;;;;;12.83;10.43;;;19.20;99.90;;;;;;5123103;28;20193;-77
2023/05/21 09:59:37;;;;;;;13.33;10.10;;;19.20;99.90;;;;;;5121017;28;20170;-77
2023/05/21 10:02:20;;;;;;;13.10;9.87;;;19.40;99.90;;;;;;5117187;28;20230;-77
2023/05/21 10:04:50;;;;;;;13.73;10.20;;;19.50;1.00;;;;;;5119249;28;20193;-77
2023/05/21 10:07:24;;;;;;;12.93;10.00;;;19.50;99.90;;;;;;5119182;28;20162;-77
2023/05/21 10:09:53;;;;;;;12.33;10.37;;;19.50;99.90;;;;;;5117287;28;20177;-77
2023/05/21 10:12:21;;;;;;;12.17;10.57;;;19.60;99.90;;;;;;5118429;27;20223;-77
2023/05/21 10:14:52;;;;;;;16.67;10.97;;;19.70;99.90;;;;;;5118300;28;20201;-78
2023/05/21 10:17:19;;;;;;;11.17;9.87;;;19.70;99.90;;;;;;5118699;28;20279;-77
2023/05/21 10:19:46;;;;;;;14.57;10.17;;;19.70;99.90;;;;;;5116835;28;20212;-77
2023/05/21 10:22:12;;;;;;;12.93;10.27;;;19.70;99.90;;;;;;5116654;28;20189;-77
2023/05/21 10:24:39;;;;;;;11.10;9.30;;;19.90;99.90;;;;;;5117050;28;20198;-77
2023/05/21 10:27:06;;;;;;;11.80;10.60;;;19.80;99.90;;;;;;5118157;28;20170;-77
2023/05/21 10:29:33;;;;;;;14.80;10.57;;;19.90;99.90;;;;;;5117995;28;20205;-77
2023/05/21 10:32:01;;;;;;;10.10;9.07;;;19.90;99.90;;;;;;5117926;28;20281;-77
2023/05/21 10:34:28;;;;;;;12.37;10.33;;;20.10;99.90;;;;;;5118706;28;20180;-78
2023/05/21 10:36:55;;;;;;;12.00;10.50;;;20.30;99.90;;;;;;5118538;28;20284;-77
2023/05/21 10:39:24;;;;;;;13.43;10.40;;;20.30;99.90;;;;;;5118410;28;20169;-77
2023/05/21 10:42:19;;;;;;;13.30;9.97;;;20.40;99.90;;;;;;5118061;28;20192;-77
2023/05/21 10:45:15;;;;;;;12.17;9.70;;;20.50;99.90;;;;;;5116719;28;20577;-77
2023/05/21 10:48:05;;;;;;;11.50;10.30;;;20.60;99.90;;;;;;5118991;28;20166;-77
2023/05/21 10:50:58;;;;;;;13.07;9.87;;;20.60;99.90;;;;;;5118469;28;20158;-78
2023/05/21 10:53:54;;;;;;;12.47;9.77;;;20.70;99.90;;;;;;5117020;28;20162;-77
2023/05/21 10:56:47;;;;;;;11.87;10.30;;;20.70;99.90;;;;;;5116972;28;20221;-78
2023/05/21 10:59:20;;;;;;;13.83;10.77;;;20.80;99.90;;;;;;5118984;28;20241;-78
2023/05/21 11:01:54;;;;;;;14.17;9.67;;;20.80;99.90;;;;;;5118815;28;20146;-78
2023/05/21 11:04:26;;;;;;;12.03;10.70;;;20.70;99.90;;;;;;5116414;28;20209;-77
2023/05/21 11:06:52;;;;;;;11.57;10.30;;;20.70;99.90;;;;;;5117236;28;20173;-77
2023/05/21 11:09:18;;;;;;;15.23;10.70;;;20.70;99.90;;;;;;5118110;28;20675;-77
2023/05/21 11:11:47;;;;;;;12.23;9.63;;;20.70;99.90;;;;;;5118425;28;20181;-78
2023/05/21 11:14:34;;;;;;;13.73;10.33;;;20.70;99.90;;;;;;5116223;28;20185;-78
2023/05/21 11:17:01;;;;;;;12.07;10.30;;;20.80;99.90;;;;;;5118322;28;20178;-78
2023/05/21 11:19:37;;;;;;;12.50;10.23;;;20.90;99.90;;;;;;5117784;28;20172;-78
2023/05/21 11:22:25;;;;;;;15.40;10.43;;;20.80;99.90;;;;;;5113369;28;20177;-78
2023/05/21 11:24:53;;;;;;;11.77;9.80;;;20.90;99.90;;;;;;5103132;28;20266;-77
2023/05/21 11:27:32;;;;;;;15.70;10.93;;;21.00;99.90;;;;;;5104311;28;20674;-78
2023/05/21 11:29:58;;;;;;;12.70;10.17;;;21.10;99.90;;;;;;5096283;28;20162;-78
2023/05/21 11:32:23;;;;;;;13.67;10.07;;;21.20;99.90;;;;;;5096302;28;20216;-78
2023/05/21 11:34:50;;;;;;;12.10;10.80;;;21.30;99.90;;;;;;5098956;28;20263;-78
2023/05/21 11:37:31;;;;;;;13.53;10.33;;;21.40;99.90;;;;;;5098417;28;20222;-77
2023/05/21 11:40:15;;;;;;;12.27;9.33;;;21.50;99.90;;;;;;5097469;28;20147;-77
2023/05/21 11:42:42;;;;;;;13.70;9.73;;;21.50;99.90;;;;;;5097760;28;20150;-78
2023/05/21 11:45:08;;;;;;;11.17;9.17;;;21.70;99.90;;;;;;5098088;28;20186;-77
2023/05/21 11:47:34;;;;;;;12.30;9.93;;;21.60;99.90;;;;;;5097757;28;20170;-78
2023/05/21 11:50:01;;;;;;;10.97;9.00;;;21.70;99.90;;;;;;5096222;28;20181;-78
2023/05/21 11:52:29;;;;;;;9.77;8.77;;;21.70;99.90;;;;;;5099058;28;20174;-78
2023/05/21 11:54:55;;;;;;;11.10;8.87;;;21.70;99.90;;;;;;5114749;28;20243;-78
2023/05/21 12:00:43;;;;;;;11.43;10.07;;;21.80;99.90;;;;;;5098711;28;20158;-77
2023/05/21 12:03:12;;;;;;;13.57;9.77;;;21.80;99.90;;;;;;5097655;28;20171;-78
2023/05/21 12:05:46;;;;;;;11.43;8.97;;;21.80;99.90;;;;;;5099944;28;20747;-78
2023/05/21 12:08:11;;;;;;;13.33;9.40;;;22.00;99.90;;;;;;5106042;28;20166;-78
2023/05/21 12:10:38;;;;;;;14.23;10.07;;;22.00;99.90;;;;;;5108927;28;20241;-77
2023/05/21 12:13:04;;;;;;;10.73;8.73;;;22.20;99.90;;;;;;5098896;28;20243;-78
2023/05/21 12:15:29;;;;;;;14.40;10.73;;;22.20;99.90;;;;;;5097491;28;20206;-78
2023/05/21 12:17:55;;;;;;;10.60;9.47;;;22.30;99.90;;;;;;5098919;28;20684;-78
2023/05/21 12:20:22;;;;;;;11.90;9.07;;;22.50;99.90;;;;;;5099973;28;20166;-79
2023/05/21 12:22:49;;;;;;;10.93;9.80;;;22.30;99.90;;;;;;5098630;28;20193;-78
2023/05/21 12:25:18;;;;;;;14.13;9.40;;;22.50;99.90;;;;;;5114977;28;20210;-78
2023/05/21 12:27:45;;;;;;;13.27;10.03;;;22.50;99.90;;;;;;5100270;28;20169;-78
2023/05/21 12:30:11;;;;;;;14.60;10.03;;;22.60;99.90;;;;;;5099844;28;20166;-77
2023/05/21 12:32:42;;;;;;;11.17;9.70;;;22.60;99.90;;;;;;5099013;28;20269;-78
2023/05/21 12:35:08;;;;;;;11.53;9.40;;;22.60;99.90;;;;;;5099573;28;20693;-79
2023/05/21 12:37:34;;;;;;;11.97;9.47;;;22.70;99.90;;;;;;5097831;28;20266;-79
2023/05/21 12:40:03;;;;;;;14.53;9.93;;;22.80;99.90;;;;;;5099253;28;20174;-78
2023/05/21 12:42:34;;;;;;;11.20;9.60;;;22.80;99.90;;;;;;5099916;28;20174;-78
2023/05/21 12:45:09;;;;;;;11.57;9.87;;;22.80;99.90;;;;;;5115029;28;20251;-79
2023/05/21 12:47:35;;;;;;;10.63;9.53;;;22.80;99.90;;;;;;5098714;28;20174;-79